Time;durP1;ratioP1;P1;durP2;ratioP2;P2;SDS_P1;SDS_P2;PMS_P1;PMS_P2;Temp;Humidity;BMP_temperature;BMP_pressure;BME280_temperature;BME280_humidity;BME280_pressure;Samples;Min_cycle;Max_cycle;Signal;HPM_P1;HPM_P2
2022/10/12 00:00:11;;;;;;;12.98;3.20;;;;;;;8.88;77.05;102128.44;1817490;77;21035;-82
2022/10/12 00:02:40;;;;;;;8.10;3.25;;;;;;;9.02;77.15;102121.29;1796363;78;21644;-83
2022/10/12 00:05:07;;;;;;;11.68;2.83;;;;;;;9.14;77.12;102129.84;1780247;79;21817;-83
2022/10/12 00:07:34;;;;;;;15.65;3.50;;;;;;;9.24;77.06;102129.90;1796076;78;21047;-82
2022/10/12 00:10:01;;;;;;;9.95;3.75;;;;;;;9.32;77.04;102130.30;1796482;78;21026;-82
2022/10/12 00:12:28;;;;;;;11.22;3.22;;;;;;;9.41;77.06;102130.78;1795749;78;21050;-82
2022/10/12 00:14:55;;;;;;;14.60;3.12;;;;;;;9.50;77.10;102138.25;1796142;77;21050;-83
2022/10/12 00:17:22;;;;;;;15.60;3.52;;;;;;;9.59;77.09;102132.54;1810141;78;21732;-83
2022/10/12 00:19:49;;;;;;;12.10;3.25;;;;;;;9.68;77.05;102139.16;1826851;77;21003;-83
2022/10/12 00:22:16;;;;;;;10.95;3.52;;;;;;;9.76;77.03;102137.34;1795863;78;21101;-82
2022/10/12 00:24:43;;;;;;;11.12;3.10;;;;;;;9.84;77.07;102137.33;1795914;78;21031;-83
2022/10/12 00:27:10;;;;;;;12.30;3.40;;;;;;;9.91;77.01;102138.14;1816612;78;21555;-83
2022/10/12 00:29:37;;;;;;;9.25;2.47;;;;;;;9.95;76.98;102137.45;1809707;78;21709;-83
2022/10/12 00:32:03;;;;;;;9.98;2.92;;;;;;;10.04;76.96;102140.55;1795946;77;21034;-83
2022/10/12 00:34:31;;;;;;;5.15;2.45;;;;;;;10.10;76.88;102139.95;1795753;78;21026;-83
2022/10/12 00:36:58;;;;;;;10.20;2.98;;;;;;;10.15;76.78;102142.36;1818876;77;21940;-81
2022/10/12 00:39:24;;;;;;;12.53;2.47;;;;;;;10.17;76.72;102139.81;1809269;77;22320;-81
2022/10/12 00:41:51;;;;;;;12.00;2.65;;;;;;;10.19;76.69;102133.82;1826965;76;21680;-82
2022/10/12 00:44:45;;;;;;;9.03;3.00;;;;;;;10.26;76.65;102139.84;1808628;76;21280;-82
2022/10/12 00:47:23;;;;;;;11.15;2.92;;;;;;;10.30;76.61;102137.91;1809147;76;21050;-83
2022/10/12 00:49:55;;;;;;;8.05;2.72;;;;;;;10.36;76.54;102140.33;1808692;76;21023;-82
2022/10/12 00:52:26;;;;;;;8.88;2.75;;;;;;;10.40;76.43;102146.22;1812086;77;21512;-82
2022/10/12 00:54:53;;;;;;;7.78;2.00;;;;;;;10.42;76.42;102142.85;1842056;77;21752;-82
2022/10/12 00:57:20;;;;;;;12.37;2.70;;;;;;;10.44;76.32;102148.20;1838883;76;21003;-83
2022/10/12 00:59:57;;;;;;;13.00;2.50;;;;;;;10.46;76.28;102146.53;1825374;77;21066;-82
2022/10/12 01:02:24;;;;;;;9.83;2.92;;;;;;;10.46;76.17;102138.21;1807865;77;21058;-82
2022/10/12 01:04:51;;;;;;;6.45;2.08;;;;;;;10.48;76.17;102140.92;1808816;77;21019;-83
2022/10/12 01:07:18;;;;;;;8.28;2.80;;;;;;;10.48;76.06;102145.77;1785059;79;21749;-82
2022/10/12 01:09:45;;;;;;;9.88;2.75;;;;;;;10.47;76.03;102143.98;1831949;76;21564;-82
2022/10/12 01:12:12;;;;;;;10.20;2.20;;;;;;;10.48;76.05;102148.83;1822861;77;21008;-82
2022/10/12 01:14:39;;;;;;;8.73;2.42;;;;;;;10.50;76.03;102148.48;1818917;77;21069;-82
2022/10/12 01:17:35;;;;;;;8.20;2.83;;;;;;;10.52;75.98;102143.30;1831379;77;21026;-82
2022/10/12 01:20:28;;;;;;;9.50;2.05;;;;;;;10.55;75.95;102144.73;1809101;77;21702;-82
2022/10/12 01:23:23;;;;;;;7.80;1.85;;;;;;;10.56;75.82;102149.19;1831620;77;20973;-82
2022/10/12 01:26:25;;;;;;;5.97;1.67;;;;;;;10.55;75.72;102145.66;1825871;76;21534;-81
2022/10/12 01:29:06;;;;;;;7.28;2.25;;;;;;;10.46;75.65;102123.73;1827237;77;21571;-81
2022/10/12 01:31:44;;;;;;;8.75;2.45;;;;;;;10.51;75.54;102138.45;1808821;76;21093;-81
2022/10/12 01:34:31;;;;;;;6.30;2.27;;;;;;;10.46;75.48;102139.95;1808432;76;21790;-80
2022/10/12 01:37:20;;;;;;;9.33;2.40;;;;;;;10.42;75.50;102136.27;1808388;76;21019;-81
2022/10/12 01:39:52;;;;;;;7.47;2.10;;;;;;;10.38;75.50;102142.61;1827840;77;21028;-81
2022/10/12 01:42:33;;;;;;;11.12;2.33;;;;;;;10.36;75.58;102141.25;1807388;76;21085;-81
2022/10/12 01:45:04;;;;;;;12.28;2.35;;;;;;;10.38;75.64;102144.86;1800858;78;21471;-81
2022/10/12 01:47:31;;;;;;;8.88;2.35;;;;;;;10.40;75.60;102143.58;1816669;78;22441;-81
2022/10/12 01:49:58;;;;;;;8.50;2.40;;;;;;;10.40;75.59;102142.27;1800954;78;21109;-81
2022/10/12 01:52:30;;;;;;;7.65;1.80;;;;;;;10.40;75.56;102151.09;1829733;78;21085;-82
2022/10/12 01:55:11;;;;;;;7.12;1.90;;;;;;;10.41;75.61;102152.88;1817213;78;21050;-82
2022/10/12 01:58:11;;;;;;;7.97;2.02;;;;;;;10.39;75.49;102153.22;1801328;78;21528;-82
2022/10/12 02:00:59;;;;;;;9.55;2.05;;;;;;;10.31;75.38;102155.48;1799721;78;21175;-82
2022/10/12 02:04:10;;;;;;;8.03;2.10;;;;;;;10.23;75.38;102154.19;1800551;78;21030;-81
2022/10/12 02:06:42;;;;;;;7.72;1.87;;;;;;;10.17;75.48;102153.86;1808484;78;21038;-81
2022/10/12 02:09:25;;;;;;;10.28;2.27;;;;;;;10.15;75.68;102154.20;1815970;78;21580;-82
2022/10/12 02:11:53;;;;;;;9.47;2.17;;;;;;;10.16;75.77;102158.66;1801752;78;21078;-81
2022/10/12 02:14:23;;;;;;;8.30;2.22;;;;;;;10.17;75.81;102147.28;1794703;79;21756;-82
2022/10/12 02:16:53;;;;;;;6.42;2.20;;;;;;;10.19;75.84;102153.55;1831493;78;21006;-82
2022/10/12 02:19:25;;;;;;;4.75;1.70;;;;;;;10.20;75.87;102150.50;1833949;77;21011;-82
2022/10/12 02:21:54;;;;;;;10.82;2.47;;;;;;;10.22;75.93;102147.11;1810146;77;21069;-82
2022/10/12 02:24:21;;;;;;;5.53;1.98;;;;;;;10.24;75.90;102145.45;1817070;78;21054;-82
2022/10/12 02:26:48;;;;;;;8.75;2.05;;;;;;;10.25;75.95;102149.90;1801095;78;21775;-81
2022/10/12 02:29:19;;;;;;;10.65;2.15;;;;;;;10.29;75.95;102156.22;1801255;78;21485;-82
2022/10/12 02:32:09;;;;;;;6.12;1.72;;;;;;;10.33;75.97;102148.09;1801262;78;21623;-82
2022/10/12 02:34:59;;;;;;;9.08;2.12;;;;;;;10.35;75.95;102151.27;1800879;78;21007;-83
2022/10/12 02:37:44;;;;;;;4.78;1.57;;;;;;;10.37;76.00;102152.25;1824597;76;21057;-82
2022/10/12 02:40:23;;;;;;;6.53;2.50;;;;;;;10.38;75.99;102154.45;1823714;78;22550;-82
2022/10/12 02:42:53;;;;;;;6.87;1.85;;;;;;;10.39;75.99;102151.02;1809924;77;21583;-82
2022/10/12 02:45:21;;;;;;;6.25;1.87;;;;;;;10.39;76.02;102153.22;1802270;78;21041;-82
2022/10/12 02:47:48;;;;;;;5.75;1.50;;;;;;;10.39;76.06;102154.53;1804411;78;21031;-82
2022/10/12 02:50:15;;;;;;;6.80;1.85;;;;;;;10.40;76.07;102155.04;1800503;79;21119;-81
2022/10/12 02:52:42;;;;;;;8.80;2.25;;;;;;;10.41;76.14;102151.56;1796138;78;21669;-82
2022/10/12 02:55:10;;;;;;;7.10;1.82;;;;;;;10.43;76.14;102155.59;1751126;80;21053;-82
2022/10/12 02:57:37;;;;;;;4.90;2.15;;;;;;;10.43;76.13;102156.48;1782971;79;21516;-82
2022/10/12 03:00:05;;;;;;;6.47;2.17;;;;;;;10.41;76.16;102146.72;1790525;78;21369;-82
2022/10/12 03:02:34;;;;;;;9.30;2.02;;;;;;;10.41;76.21;102145.41;1775783;77;21056;-82
2022/10/12 03:05:00;;;;;;;6.35;1.80;;;;;;;10.38;76.17;102138.27;1784020;78;22395;-81
2022/10/12 03:07:27;;;;;;;7.33;3.15;;;;;;;10.38;76.22;102145.24;1807934;78;21076;-82
2022/10/12 03:09:54;;;;;;;6.75;1.92;;;;;;;10.37;76.31;102145.67;1802635;77;21442;-87
2022/10/12 03:12:21;;;;;;;6.50;2.30;;;;;;;10.39;76.32;102149.70;1791532;77;21029;-87
2022/10/12 03:14:49;;;;;;;6.22;1.77;;;;;;;10.36;76.27;102149.14;1782444;77;21420;-87
2022/10/12 03:17:19;;;;;;;7.55;2.40;;;;;;;10.33;76.16;102152.04;1788783;77;21964;-86
2022/10/12 03:19:46;;;;;;;11.12;2.17;;;;;;;10.15;76.11;102134.89;1797889;77;21049;-87
2022/10/12 03:22:13;;;;;;;7.60;2.30;;;;;;;10.16;76.10;102154.70;1790623;77;21088;-87
2022/10/12 03:24:39;;;;;;;8.08;2.60;;;;;;;10.09;76.16;102149.55;1776084;79;21654;-82
2022/10/12 03:27:06;;;;;;;7.72;2.20;;;;;;;10.02;76.20;102154.42;1776095;78;21060;-82
2022/10/12 03:29:33;;;;;;;4.15;2.00;;;;;;;9.96;76.27;102155.45;1775723;78;21785;-82
2022/10/12 03:32:00;;;;;;;7.22;2.35;;;;;;;9.88;76.34;102155.95;1803733;77;21064;-82
2022/10/12 03:34:27;;;;;;;6.53;2.37;;;;;;;9.83;76.47;102161.39;1792756;78;21108;-82
2022/10/12 03:36:53;;;;;;;8.03;2.17;;;;;;;9.85;76.75;102161.09;1798397;78;21166;-82
2022/10/12 03:39:20;;;;;;;11.20;2.40;;;;;;;9.90;76.91;102166.14;1775994;79;21049;-82
2022/10/12 03:41:47;;;;;;;7.67;2.25;;;;;;;9.97;77.04;102171.31;1776097;78;22582;-82
2022/10/12 03:44:14;;;;;;;5.30;2.58;;;;;;;10.03;77.10;102168.98;1821761;76;21010;-82
2022/10/12 03:46:41;;;;;;;5.50;2.30;;;;;;;10.11;77.11;102171.98;1848931;77;21048;-83
2022/10/12 03:49:08;;;;;;;8.35;2.15;;;;;;;10.17;77.04;102175.34;1814455;78;21378;-84
2022/10/12 03:51:35;;;;;;;10.35;2.70;;;;;;;10.20;77.02;102181.66;1827211;77;21078;-82
2022/10/12 03:54:02;;;;;;;5.05;2.20;;;;;;;10.24;76.95;102176.13;1841727;77;22106;-82
2022/10/12 03:56:29;;;;;;;8.38;2.42;;;;;;;10.26;76.98;102180.63;1841266;77;21532;-82
2022/10/12 03:58:56;;;;;;;10.25;3.02;;;;;;;10.30;76.96;102180.38;1851068;77;21532;-83
2022/10/12 04:01:23;;;;;;;8.85;2.50;;;;;;;10.33;76.99;102178.36;1820516;76;21044;-82
2022/10/12 04:03:49;;;;;;;6.90;2.67;;;;;;;10.36;76.97;102187.31;1849335;76;21023;-82
2022/10/12 04:06:16;;;;;;;9.45;2.60;;;;;;;10.41;76.98;102187.09;1833734;76;21728;-83
2022/10/12 04:08:43;;;;;;;8.70;2.55;;;;;;;10.44;76.99;102184.62;1819948;77;20994;-82
2022/10/12 04:11:10;;;;;;;9.98;2.70;;;;;;;10.47;76.95;102184.79;1842814;76;20975;-82
2022/10/12 04:13:37;;;;;;;5.85;2.22;;;;;;;10.49;76.88;102185.76;1837642;76;21148;-84
2022/10/12 04:16:05;;;;;;;7.47;2.25;;;;;;;10.53;76.94;102192.08;1872021;76;21003;-84
2022/10/12 04:18:45;;;;;;;9.10;2.65;;;;;;;10.57;76.96;102193.13;1844802;76;22482;-87
2022/10/12 04:21:13;;;;;;;8.95;2.83;;;;;;;10.61;76.87;102191.12;1838397;77;20999;-83
2022/10/12 04:23:40;;;;;;;8.30;2.67;;;;;;;10.63;76.86;102194.31;1808900;78;21006;-83
2022/10/12 04:26:10;;;;;;;9.28;3.00;;;;;;;10.67;76.83;102195.36;1838552;77;21079;-92
2022/10/12 04:28:38;;;;;;;11.30;2.42;;;;;;;10.68;76.79;102203.34;1855027;77;20968;-90
2022/10/12 04:31:05;;;;;;;9.55;2.72;;;;;;;10.72;76.80;102203.08;1854320;77;21766;-91
2022/10/12 04:33:32;;;;;;;7.35;2.65;;;;;;;10.73;76.72;102206.60;1854640;77;21074;-89
2022/10/12 04:35:59;;;;;;;8.23;3.33;;;;;;;10.73;76.70;102211.45;1846731;77;21508;-88
2022/10/12 04:38:27;;;;;;;11.03;3.50;;;;;;;10.76;76.69;102218.61;1854747;77;21043;-90
2022/10/12 04:40:53;;;;;;;8.98;3.52;;;;;;;10.75;76.68;102216.79;1854786;77;21004;-91
2022/10/12 04:43:21;;;;;;;12.35;3.40;;;;;;;10.75;76.69;102216.37;1838442;77;21793;-88
2022/10/12 04:45:56;;;;;;;7.45;4.15;;;;;;;10.77;76.70;102213.39;1829741;77;21576;-88
2022/10/12 04:48:23;;;;;;;8.25;4.60;;;;;;;10.78;76.65;102217.84;1814323;77;21062;-89
2022/10/12 04:50:59;;;;;;;14.15;5.47;;;;;;;10.79;76.63;102222.69;1824860;77;21512;-88
2022/10/12 04:53:26;;;;;;;19.82;9.80;;;;;;;10.78;76.60;102223.11;1832349;77;21000;-90
2022/10/12 04:55:53;;;;;;;19.82;12.88;;;;;;;10.79;76.59;102224.93;1826851;77;22452;-86
2022/10/12 04:58:20;;;;;;;17.87;12.43;;;;;;;10.80;76.60;102223.19;1820004;76;21026;-87
2022/10/12 05:00:58;;;;;;;15.35;11.45;;;;;;;10.81;76.60;102222.34;1828209;76;21011;-85
2022/10/12 05:03:25;;;;;;;16.90;7.85;;;;;;;10.83;76.58;102227.27;1809157;76;21109;-86
2022/10/12 05:05:52;;;;;;;14.75;6.67;;;;;;;10.83;76.53;102229.51;1808983;77;21022;-87
2022/10/12 05:08:19;;;;;;;13.55;5.22;;;;;;;10.82;76.53;102225.05;1840252;76;21787;-86
2022/10/12 05:10:46;;;;;;;9.90;4.55;;;;;;;10.79;76.46;102222.30;1842790;77;21509;-91
2022/10/12 05:13:13;;;;;;;10.32;3.87;;;;;;;10.81;76.57;102227.22;1842470;77;21573;-89
2022/10/12 05:15:41;;;;;;;8.00;3.52;;;;;;;10.81;76.44;102236.83;1842148;77;20965;-90
2022/10/12 05:18:08;;;;;;;10.85;3.80;;;;;;;10.79;76.44;102234.54;1817307;77;21042;-89
2022/10/12 05:20:36;;;;;;;7.85;4.17;;;;;;;10.76;76.47;102230.04;1808825;77;21837;-89
2022/10/12 05:23:04;;;;;;;11.65;4.22;;;;;;;10.76;76.46;102232.67;1833268;76;21015;-89
2022/10/12 05:25:31;;;;;;;7.20;2.92;;;;;;;10.74;76.42;102234.34;1837883;76;21043;-89
2022/10/12 05:27:58;;;;;;;9.23;3.27;;;;;;;10.70;76.43;102235.91;1823778;77;21533;-88
2022/10/12 05:30:25;;;;;;;11.43;3.47;;;;;;;10.66;76.36;102235.28;1834421;76;21556;-82
2022/10/12 05:32:51;;;;;;;8.33;3.35;;;;;;;10.56;76.29;102239.59;1821495;77;21790;-82
2022/10/12 05:35:18;;;;;;;8.95;2.90;;;;;;;10.45;76.26;102241.69;1826164;77;21474;-82
2022/10/12 05:37:49;;;;;;;10.85;3.05;;;;;;;10.35;76.30;102249.08;1834342;77;21501;-88
2022/10/12 05:40:16;;;;;;;7.90;2.65;;;;;;;10.17;76.34;102239.80;1791191;77;21044;-88
2022/10/12 05:42:44;;;;;;;7.70;2.70;;;;;;;10.17;76.42;102246.38;1829863;77;21481;-89
2022/10/12 05:45:12;;;;;;;7.47;2.80;;;;;;;10.06;76.51;102248.45;1809237;79;22485;-88
2022/10/12 05:47:39;;;;;;;7.33;2.60;;;;;;;10.02;76.62;102252.69;1809181;79;21596;-88
2022/10/12 05:50:07;;;;;;;7.08;2.72;;;;;;;9.95;76.71;102242.67;1799673;78;21106;-88
2022/10/12 05:52:35;;;;;;;7.65;2.72;;;;;;;9.90;76.88;102250.73;1825217;77;21026;-88
2022/10/12 05:55:01;;;;;;;7.78;2.83;;;;;;;9.87;76.98;102253.19;1817596;78;21037;-88
2022/10/12 05:57:29;;;;;;;7.33;2.77;;;;;;;9.87;77.16;102258.45;1825888;77;22526;-88
2022/10/12 05:59:55;;;;;;;6.90;2.70;;;;;;;9.88;77.26;102264.22;1842249;76;21056;-88
2022/10/12 06:02:22;;;;;;;9.03;2.60;;;;;;;9.89;77.34;102263.38;1823580;77;21018;-87
2022/10/12 06:04:52;;;;;;;6.00;2.77;;;;;;;9.91;77.38;102261.33;1809000;77;21166;-88
2022/10/12 06:07:18;;;;;;;10.43;2.70;;;;;;;9.95;77.42;102261.47;1797700;77;21601;-88
2022/10/12 06:09:46;;;;;;;8.55;2.72;;;;;;;9.99;77.54;102257.78;1815431;76;21722;-88
2022/10/12 06:12:13;;;;;;;7.28;2.70;;;;;;;10.02;77.55;102254.39;1828327;77;21167;-88
2022/10/12 06:14:42;;;;;;;8.70;3.37;;;;;;;10.07;77.65;102251.59;1832836;77;21020;-88
2022/10/12 06:17:09;;;;;;;8.95;2.87;;;;;;;10.15;77.73;102255.51;1796533;77;21542;-88
2022/10/12 06:19:36;;;;;;;9.13;3.30;;;;;;;10.19;77.70;102249.60;1842408;77;21628;-88
2022/10/12 06:22:03;;;;;;;6.62;2.90;;;;;;;10.27;77.75;102248.67;1819154;77;21715;-85
2022/10/12 06:24:29;;;;;;;5.20;3.02;;;;;;;10.28;77.77;102240.82;1822989;77;21029;-88
2022/10/12 06:26:57;;;;;;;7.80;3.02;;;;;;;10.41;77.77;102257.28;1775533;78;20983;-88
2022/10/12 06:29:23;;;;;;;6.50;3.17;;;;;;;10.51;77.86;102249.02;1802295;78;21108;-88
2022/10/12 06:31:50;;;;;;;15.20;4.17;;;;;;;10.62;77.89;102255.72;1833163;77;21580;-88
2022/10/12 06:34:18;;;;;;;7.58;3.80;;;;;;;10.73;77.88;102249.63;1823600;76;22556;-88
2022/10/12 06:36:44;;;;;;;7.87;4.53;;;;;;;10.86;77.88;102252.02;1819639;77;21031;-88
2022/10/12 06:39:13;;;;;;;7.35;4.25;;;;;;;11.00;77.83;102251.77;1842733;77;20996;-88
2022/10/12 06:41:40;;;;;;;12.28;3.42;;;;;;;11.13;77.79;102255.50;1821339;77;21050;-88
2022/10/12 06:44:08;;;;;;;9.25;3.60;;;;;;;11.26;77.60;102255.24;1807367;78;21086;-88
2022/10/12 06:46:35;;;;;;;11.43;3.83;;;;;;;11.39;77.58;102255.78;1795806;77;21846;-82
2022/10/12 06:49:03;;;;;;;11.97;3.52;;;;;;;11.55;77.52;102263.57;1809651;78;21520;-83
2022/10/12 06:51:30;;;;;;;11.10;4.70;;;;;;;11.68;77.29;102260.64;1828200;78;21093;-82
2022/10/12 06:53:57;;;;;;;8.60;3.55;;;;;;;11.84;77.07;102260.00;1805147;78;21164;-83
2022/10/12 06:56:24;;;;;;;13.00;3.62;;;;;;;11.97;76.92;102254.45;1814547;77;21057;-83
2022/10/12 06:58:55;;;;;;;15.43;3.92;;;;;;;12.12;76.77;102258.17;1819314;77;22655;-83
2022/10/12 07:01:22;;;;;;;9.20;3.15;;;;;;;12.29;76.68;102254.03;1821938;77;21055;-82
2022/10/12 07:03:48;;;;;;;8.15;2.90;;;;;;;12.45;76.48;102257.80;1800928;78;22397;-83
2022/10/12 07:06:15;;;;;;;8.65;3.05;;;;;;;12.62;76.32;102256.75;1798095;77;21522;-83
2022/10/12 07:08:43;;;;;;;8.58;3.62;;;;;;;12.79;76.12;102254.78;1820208;78;21031;-84
2022/10/12 07:11:11;;;;;;;8.58;2.98;;;;;;;12.95;75.85;102256.31;1799458;78;21685;-83
2022/10/12 07:13:38;;;;;;;7.85;2.80;;;;;;;13.09;75.47;102259.91;1805916;77;22181;-83
2022/10/12 07:16:05;;;;;;;12.78;2.70;;;;;;;13.20;75.08;102265.20;1808516;78;21078;-83
2022/10/12 07:18:33;;;;;;;8.63;2.52;;;;;;;13.29;74.77;102268.20;1818529;77;21416;-83
2022/10/12 07:21:01;;;;;;;7.05;2.37;;;;;;;13.36;74.35;102254.80;1814183;78;21014;-89
2022/10/12 07:23:30;;;;;;;10.70;3.05;;;;;;;13.39;74.11;102265.50;1824275;77;22619;-89
2022/10/12 07:25:58;;;;;;;9.73;3.27;;;;;;;13.40;73.98;102264.25;1796360;78;21050;-89
2022/10/12 07:28:26;;;;;;;11.63;5.15;;;;;;;13.46;73.84;102266.22;1799259;78;21073;-88
2022/10/12 07:30:53;;;;;;;10.25;3.02;;;;;;;13.52;73.77;102269.08;1828916;78;21098;-88
2022/10/12 07:33:20;;;;;;;11.70;3.52;;;;;;;13.60;73.75;102267.61;1828454;78;21003;-89
2022/10/12 07:35:54;;;;;;;9.20;4.05;;;;;;;13.70;73.57;102276.81;1797050;79;21737;-89
2022/10/12 07:38:21;;;;;;;9.28;3.45;;;;;;;13.71;73.09;102277.27;1819179;78;21019;-88
2022/10/12 07:40:48;;;;;;;9.18;3.00;;;;;;;13.70;72.93;102275.89;1797221;78;21053;-88
2022/10/12 07:43:15;;;;;;;11.55;5.42;;;;;;;13.71;72.87;102273.30;1816439;78;21106;-87
2022/10/12 07:45:43;;;;;;;10.72;3.77;;;;;;;13.75;72.64;102274.32;1830039;78;21066;-88
2022/10/12 07:48:10;;;;;;;13.35;5.03;;;;;;;13.78;72.56;102274.02;1827625;77;21758;-88
2022/10/12 07:50:37;;;;;;;11.05;3.65;;;;;;;13.76;72.31;102279.67;1825726;77;21008;-88
2022/10/12 07:53:04;;;;;;;9.25;3.27;;;;;;;13.77;72.40;102277.92;1824708;77;20984;-87
2022/10/12 07:55:31;;;;;;;15.75;3.72;;;;;;;13.80;72.11;102272.75;1839115;76;21142;-87
2022/10/12 07:58:01;;;;;;;8.15;3.15;;;;;;;13.77;71.99;102278.81;1858529;75;21015;-87
2022/10/12 08:00:28;;;;;;;11.45;5.45;;;;;;;13.75;71.92;102282.26;1842610;77;22987;-87
2022/10/12 08:02:56;;;;;;;11.33;5.33;;;;;;;13.74;71.71;102277.40;1842891;76;20968;-87
2022/10/12 08:05:23;;;;;;;9.00;3.12;;;;;;;13.73;71.74;102278.66;1839665;77;21623;-87
2022/10/12 08:07:50;;;;;;;11.55;7.08;;;;;;;13.74;71.64;102273.83;1839928;77;20999;-90
2022/10/12 08:10:17;;;;;;;15.65;3.50;;;;;;;13.78;71.57;102277.09;1832048;77;21073;-90
2022/10/12 08:12:44;;;;;;;7.50;2.30;;;;;;;13.80;71.54;102279.37;1830842;77;21760;-90
2022/10/12 08:15:15;;;;;;;8.70;3.10;;;;;;;13.86;71.43;102277.36;1814886;77;21067;-90
2022/10/12 08:17:43;;;;;;;6.90;2.85;;;;;;;13.87;71.25;102272.12;1834027;77;21051;-90
2022/10/12 08:20:10;;;;;;;7.25;2.72;;;;;;;13.90;71.09;102273.54;1818660;77;21013;-84
2022/10/12 08:22:37;;;;;;;8.28;3.35;;;;;;;13.91;70.81;102275.36;1842237;77;21019;-88
2022/10/12 08:25:05;;;;;;;14.38;4.15;;;;;;;13.94;70.75;102266.61;1842678;76;21818;-84
2022/10/12 08:27:32;;;;;;;13.48;4.65;;;;;;;14.00;70.60;102269.07;1807557;78;21110;-85
2022/10/12 08:29:59;;;;;;;9.10;3.22;;;;;;;14.03;70.33;102267.37;1806722;77;21533;-87
2022/10/12 08:32:26;;;;;;;19.35;3.77;;;;;;;14.07;70.37;102272.81;1842476;76;20985;-82
2022/10/12 08:34:53;;;;;;;14.50;3.50;;;;;;;14.13;70.28;102269.48;1820678;76;21003;-82
2022/10/12 08:37:20;;;;;;;10.70;3.00;;;;;;;14.17;70.16;102267.01;1808362;77;21842;-85
2022/10/12 08:39:46;;;;;;;10.88;3.35;;;;;;;14.24;70.08;102272.50;1808848;77;21054;-85
2022/10/12 08:42:25;;;;;;;10.68;3.17;;;;;;;14.29;69.84;102266.95;1831346;77;21633;-85
2022/10/12 08:45:06;;;;;;;10.90;3.67;;;;;;;14.31;69.66;102259.95;1819297;77;21023;-90
2022/10/12 08:47:57;;;;;;;7.67;2.30;;;;;;;14.37;69.68;102268.98;1818023;77;21563;-85
2022/10/12 08:50:31;;;;;;;9.25;3.42;;;;;;;14.42;69.58;102261.21;1771926;78;22266;-85
2022/10/12 08:53:18;;;;;;;9.93;2.55;;;;;;;14.46;69.20;102268.84;1801242;78;21054;-84
2022/10/12 08:55:45;;;;;;;14.90;2.90;;;;;;;14.50;69.10;102272.95;1824294;78;21066;-84
2022/10/12 08:58:19;;;;;;;10.48;2.58;;;;;;;14.56;68.95;102274.91;1801170;78;21030;-84
2022/10/12 09:00:53;;;;;;;8.98;2.98;;;;;;;14.66;68.96;102272.16;1818113;76;21062;-89
2022/10/12 09:03:58;;;;;;;7.53;2.77;;;;;;;14.78;68.96;102262.86;1834547;78;21432;-89
2022/10/12 09:06:39;;;;;;;8.65;2.70;;;;;;;14.91;68.64;102268.56;1790390;78;21033;-89
2022/10/12 09:09:25;;;;;;;10.15;2.70;;;;;;;15.00;68.22;102272.83;1815033;77;21539;-84
2022/10/12 09:12:24;;;;;;;7.17;2.42;;;;;;;15.05;67.58;102275.61;1809804;77;21108;-83
2022/10/12 09:15:03;;;;;;;9.80;2.60;;;;;;;15.08;67.68;102269.09;1785046;78;21607;-88
2022/10/12 09:17:42;;;;;;;6.15;2.25;;;;;;;15.14;67.01;102266.18;1805315;78;22010;-83
2022/10/12 09:20:17;;;;;;;6.40;2.00;;;;;;;15.18;66.87;102280.44;1809620;78;20999;-88
2022/10/12 09:22:51;;;;;;;8.00;2.45;;;;;;;15.26;66.92;102270.98;1796160;78;21536;-88
2022/10/12 09:25:21;;;;;;;6.47;2.45;;;;;;;15.37;66.64;102277.91;1820469;78;21058;-89
2022/10/12 09:27:48;;;;;;;9.18;2.52;;;;;;;15.49;66.62;102278.72;1815366;78;21654;-89
2022/10/12 09:30:16;;;;;;;6.58;2.55;;;;;;;15.55;65.89;102281.11;1827613;78;22382;-89
2022/10/12 09:33:15;;;;;;;7.47;2.40;;;;;;;15.62;65.61;102282.63;1820923;78;21144;-83
2022/10/12 09:35:43;;;;;;;12.53;7.85;;;;;;;15.65;65.01;102283.59;1806084;78;21062;-83
2022/10/12 09:38:10;;;;;;;11.12;4.97;;;;;;;15.74;64.82;102286.98;1808279;78;22078;-83
2022/10/12 09:40:37;;;;;;;11.70;6.08;;;;;;;15.83;64.71;102274.41;1794569;79;21089;-83
2022/10/12 09:43:04;;;;;;;13.80;4.25;;;;;;;16.03;64.59;102285.15;1794889;77;22629;-83
2022/10/12 09:45:33;;;;;;;13.08;5.92;;;;;;;16.13;64.11;102281.86;1796222;77;21045;-83
2022/10/12 09:48:21;;;;;;;16.60;3.10;;;;;;;16.19;63.76;102292.19;1797204;78;21568;-83
2022/10/12 09:50:57;;;;;;;8.93;3.45;;;;;;;16.24;63.22;102287.47;1801035;77;21071;-83
2022/10/12 09:53:34;;;;;;;6.20;2.52;;;;;;;16.25;63.20;102281.72;1775617;78;21074;-83
2022/10/12 09:56:07;;;;;;;8.95;3.85;;;;;;;16.30;63.03;102284.96;1776445;78;21772;-84
2022/10/12 09:58:44;;;;;;;4.92;2.65;;;;;;;16.30;62.79;102284.07;1781960;79;21089;-83
2022/10/12 10:01:28;;;;;;;9.10;2.20;;;;;;;16.22;62.59;102281.66;1778790;78;21061;-84
2022/10/12 10:04:24;;;;;;;;;;;;;;;16.23;62.78;102275.47;1802174;77;21366;-84
2022/10/12 10:06:51;;;;;;;4.97;1.67;;;;;;;16.25;62.50;102274.63;1775826;79;20185;-84
2022/10/12 10:09:34;;;;;;;6.53;2.27;;;;;;;16.19;62.27;102275.81;1796247;79;21728;-84
2022/10/12 10:12:23;;;;;;;8.85;2.45;;;;;;;16.16;62.32;102271.77;1798224;78;28800;-84
2022/10/12 10:14:51;;;;;;;6.42;2.00;;;;;;;16.16;62.33;102270.44;1761203;79;21045;-84
2022/10/12 10:17:27;;;;;;;6.80;2.47;;;;;;;16.13;62.15;102273.89;1776955;78;21599;-84
2022/10/12 10:19:55;;;;;;;8.50;2.37;;;;;;;16.11;62.23;102271.63;1782238;78;21046;-83
2022/10/12 10:22:22;;;;;;;9.78;5.08;;;;;;;16.09;61.94;102276.45;1747657;81;21791;-84
2022/10/12 10:24:57;;;;;;;8.50;3.90;;;;;;;16.10;62.02;102279.55;1800810;79;21062;-89
2022/10/12 10:27:39;;;;;;;5.28;2.10;;;;;;;16.09;61.76;102277.33;1776922;79;21034;-89
2022/10/12 10:30:20;;;;;;;8.83;2.22;;;;;;;16.09;61.80;102273.78;1759976;79;21077;-89
2022/10/12 10:32:47;;;;;;;5.62;2.27;;;;;;;16.10;61.72;102268.92;1792149;78;21054;-89
2022/10/12 10:35:20;;;;;;;7.70;3.37;;;;;;;16.13;61.77;102277.87;1799464;77;21714;-89
2022/10/12 10:37:56;;;;;;;7.35;2.20;;;;;;;16.17;61.39;102279.30;1819227;77;21047;-89
2022/10/12 10:40:29;;;;;;;7.75;2.80;;;;;;;16.08;60.98;102278.17;1803496;77;21026;-89
2022/10/12 10:43:06;;;;;;;7.07;1.73;;;;;;;16.00;60.82;102279.73;1827988;77;21046;-89
2022/10/12 10:45:37;;;;;;;5.35;2.08;;;;;;;15.90;60.62;102275.05;1774022;78;21363;-83
2022/10/12 10:48:14;;;;;;;6.17;2.47;;;;;;;15.82;60.67;102280.55;1827118;76;22477;-89
2022/10/12 10:50:42;;;;;;;5.53;1.90;;;;;;;15.80;60.72;102269.00;1832664;76;21034;-84
2022/10/12 10:53:23;;;;;;;5.40;2.10;;;;;;;15.89;60.83;102273.23;1809265;78;21552;-88
2022/10/12 10:56:10;;;;;;;5.58;1.60;;;;;;;16.02;60.81;102269.16;1825884;77;21121;-88
2022/10/12 10:58:57;;;;;;;5.40;1.62;;;;;;;16.16;60.12;102277.48;1830668;77;21019;-89
2022/10/12 11:01:28;;;;;;;6.05;1.77;;;;;;;16.26;60.29;102272.90;1837480;77;21740;-89
2022/10/12 11:04:12;;;;;;;4.62;2.27;;;;;;;16.39;60.15;102270.13;1860567;76;21020;-89
2022/10/12 11:06:52;;;;;;;5.47;1.77;;;;;;;16.52;59.90;102280.20;1831889;76;20988;-89
2022/10/12 11:09:41;;;;;;;5.65;2.37;;;;;;;16.63;59.78;102276.05;1842820;77;21063;-89
2022/10/12 11:12:19;;;;;;;6.35;2.12;;;;;;;16.77;59.56;102276.38;1835371;77;21015;-89
2022/10/12 11:14:50;;;;;;;5.47;1.92;;;;;;;16.97;59.29;102277.30;1837857;77;22646;-89
2022/10/12 11:17:25;;;;;;;7.95;3.58;;;;;;;17.09;59.11;102277.15;1842301;76;21012;-89
2022/10/12 11:20:19;;;;;;;5.80;2.27;;;;;;;17.18;58.71;102274.25;1829199;77;21080;-89
2022/10/12 11:23:20;;;;;;;6.62;2.75;;;;;;;17.30;58.70;102274.50;1823964;77;21003;-89
2022/10/12 11:26:01;;;;;;;7.35;2.72;;;;;;;17.46;58.43;102274.41;1809616;78;21011;-89
2022/10/12 11:28:30;;;;;;;5.22;2.08;;;;;;;17.62;58.28;102275.16;1812965;76;22688;-89
2022/10/12 11:30:58;;;;;;;4.80;1.62;;;;;;;17.67;57.78;102272.17;1807326;79;21024;-89
2022/10/12 11:33:37;;;;;;;4.42;1.82;;;;;;;17.60;57.51;102278.67;1831005;77;21467;-89
2022/10/12 11:36:13;;;;;;;5.12;1.57;;;;;;;17.54;57.30;102273.23;1841425;76;21525;-89
2022/10/12 11:38:54;;;;;;;3.83;1.40;;;;;;;17.50;57.39;102266.95;1760116;79;21078;-88
2022/10/12 11:41:38;;;;;;;6.12;1.80;;;;;;;17.45;57.09;102264.61;1766663;79;22004;-89
2022/10/12 11:44:19;;;;;;;9.00;2.77;;;;;;;17.44;57.35;102271.70;1802315;77;21583;-90